National Geographic Sea Bird — WAK8004 — position and weather

sailwx.info

Track history (hours):
 
Tides and Currents Weather Stations Pressure Air Temp Water Temp Dewpoint Dewpoint Depression Visibility Wind Speed Wind Dir Waves Ship Positions

National Geographic Sea Bird

Owner: Lindblad Expeditions, Inc., SEATTLE, WA. More information available from US FCC via Universal Licensing System and Coast Guard Vessel Documentation Center.

Last reported at 2018-Jan-28 06:45 UTC. Time now 2018-Feb-26 01:09 UTC.
Position N 24°19' W 110°23'.
Warning: this ship's position is 28 days out of date.

Length 50 m; draft 2.7 m.

Type: Passenger vessel. MMSI: 366892350.

Date/timePositionNaut miles runAvg speedWind from/ knotsBaromVisibWave heightAir tempDewpointWater temp
2018-Jan-28 06:45N 24°19' W 110°23'2 6.9
2018-Jan-28 06:30N 24°18' W 110°22'4 7.2
2018-Jan-28 05:59N 24°14' W 110°20'4 7.3
2018-Jan-28 05:28N 24°11' W 110°18'2 3.2
2018-Jan-28 04:58N 24°10' W 110°19'0 0.0
2018-Jan-28 04:28N 24°10' W 110°19'0 0.0
2018-Jan-28 03:58N 24°10' W 110°19'0 0.0
2018-Jan-28 03:28N 24°10' W 110°19'0 0.0
2018-Jan-28 02:58N 24°10' W 110°19'0 0.0
2018-Jan-28 02:28N 24°10' W 110°19'0 0.0
2018-Jan-28 01:58N 24°10' W 110°19'0 0.0
2018-Jan-28 01:28N 24°10' W 110°19'0 0.0
2018-Jan-28 00:58N 24°10' W 110°19'0 0.0
2018-Jan-28 00:28N 24°10' W 110°19'0 0.0
2018-Jan-27 23:58N 24°10' W 110°19'0 0.0
2018-Jan-27 23:28N 24°10' W 110°19'0 0.0
2018-Jan-27 22:58N 24°10' W 110°19'0 0.0
2018-Jan-27 22:28N 24°10' W 110°19'0 0.0
2018-Jan-27 21:58N 24°10' W 110°19'0 0.0
2018-Jan-27 21:28N 24°10' W 110°19'0 0.0
2018-Jan-27 20:58N 24°10' W 110°19'0 0.0
2018-Jan-27 20:28N 24°10' W 110°19'0 0.0
2018-Jan-27 19:58N 24°10' W 110°19'0 0.0
2018-Jan-27 19:28N 24°10' W 110°19'0 0.0
2018-Jan-27 18:58N 24°10' W 110°19'0 0.0
2018-Jan-27 18:28N 24°10' W 110°19'0 0.0
2018-Jan-27 17:58N 24°10' W 110°19'0 0.0
2018-Jan-27 17:28N 24°10' W 110°19'0 0.1
2018-Jan-27 16:56N 24°10' W 110°19'0 0.1
2018-Jan-27 16:28N 24°10' W 110°19'0 0.1
2018-Jan-27 15:58N 24°10' W 110°19'0 0.1
2018-Jan-27 15:28N 24°10' W 110°19'0 0.0
2018-Jan-27 14:58N 24°10' W 110°19'0 0.0
2018-Jan-27 14:28N 24°10' W 110°19'0 0.1
2018-Jan-27 14:01N 24°10' W 110°19'3 6.4
2018-Jan-27 13:30N 24°13' W 110°18'4 8.4
2018-Jan-27 12:59N 24°16' W 110°21'7 0.8
2018-Jan-27 04:12N 24°24' W 110°20'29 3.1
2018-Jan-26 19:07N 24°49' W 110°34'0 0.2
2018-Jan-26 18:59N 24°49' W 110°34'28 1.2
2018-Jan-25 19:55N 24°24' W 110°20'0 0.4
2018-Jan-25 19:30N 24°24' W 110°20'0 0.0
2018-Jan-25 19:00N 24°24' W 110°20'0 0.0
2018-Jan-25 18:28N 24°24' W 110°20'0 0.0
2018-Jan-25 17:59N 24°24' W 110°20'0 0.0
2018-Jan-25 17:30N 24°24' W 110°20'0 0.0
2018-Jan-25 16:58N 24°24' W 110°20'0 0.0
2018-Jan-25 16:29N 24°24' W 110°20'0 0.0
2018-Jan-25 15:59N 24°24' W 110°20'0 0.0
2018-Jan-25 15:28N 24°24' W 110°20'0 0.0
2018-Jan-25 15:00N 24°24' W 110°20'0 0.0
2018-Jan-25 14:13N 24°24' W 110°20'  
Track history (hours):
 
Tides and Currents Weather Stations Pressure Air Temp Water Temp Dewpoint Dewpoint Depression Visibility Wind Speed Wind Dir Waves Ship Positions

National Geographic Sea Bird

Owner: Lindblad Expeditions, Inc., SEATTLE, WA. More information available from US FCC via Universal Licensing System and Coast Guard Vessel Documentation Center.

Last reported at 2018-Jan-28 06:45 UTC. Time now 2018-Feb-26 01:09 UTC.
Position N 24°19' W 110°23'.
Warning: this ship's position is 28 days out of date.

Length 50 m; draft 2.7 m.

Type: Passenger vessel. MMSI: 366892350.

Date/timePositionNaut miles runAvg speedWind from/ knotsBaromVisibWave heightAir tempDewpointWater temp
2018-Jan-28 06:45N 24°19' W 110°23'2 6.9
2018-Jan-28 06:30N 24°18' W 110°22'4 7.2
2018-Jan-28 05:59N 24°14' W 110°20'4 7.3
2018-Jan-28 05:28N 24°11' W 110°18'2 3.2
2018-Jan-28 04:58N 24°10' W 110°19'0 0.0
2018-Jan-28 04:28N 24°10' W 110°19'0 0.0
2018-Jan-28 03:58N 24°10' W 110°19'0 0.0
2018-Jan-28 03:28N 24°10' W 110°19'0 0.0
2018-Jan-28 02:58N 24°10' W 110°19'0 0.0
2018-Jan-28 02:28N 24°10' W 110°19'0 0.0
2018-Jan-28 01:58N 24°10' W 110°19'0 0.0
2018-Jan-28 01:28N 24°10' W 110°19'0 0.0
2018-Jan-28 00:58N 24°10' W 110°19'0 0.0
2018-Jan-28 00:28N 24°10' W 110°19'0 0.0
2018-Jan-27 23:58N 24°10' W 110°19'0 0.0
2018-Jan-27 23:28N 24°10' W 110°19'0 0.0
2018-Jan-27 22:58N 24°10' W 110°19'0 0.0
2018-Jan-27 22:28N 24°10' W 110°19'0 0.0
2018-Jan-27 21:58N 24°10' W 110°19'0 0.0
2018-Jan-27 21:28N 24°10' W 110°19'0 0.0
2018-Jan-27 20:58N 24°10' W 110°19'0 0.0
2018-Jan-27 20:28N 24°10' W 110°19'0 0.0
2018-Jan-27 19:58N 24°10' W 110°19'0 0.0
2018-Jan-27 19:28N 24°10' W 110°19'0 0.0
2018-Jan-27 18:58N 24°10' W 110°19'0 0.0
2018-Jan-27 18:28N 24°10' W 110°19'0 0.0
2018-Jan-27 17:58N 24°10' W 110°19'0 0.0
2018-Jan-27 17:28N 24°10' W 110°19'0 0.1
2018-Jan-27 16:56N 24°10' W 110°19'0 0.1
2018-Jan-27 16:28N 24°10' W 110°19'0 0.1
2018-Jan-27 15:58N 24°10' W 110°19'0 0.1
2018-Jan-27 15:28N 24°10' W 110°19'0 0.0
2018-Jan-27 14:58N 24°10' W 110°19'0 0.0
2018-Jan-27 14:28N 24°10' W 110°19'0 0.1
2018-Jan-27 14:01N 24°10' W 110°19'3 6.4
2018-Jan-27 13:30N 24°13' W 110°18'4 8.4
2018-Jan-27 12:59N 24°16' W 110°21'7 0.8
2018-Jan-27 04:12N 24°24' W 110°20'29 3.1
2018-Jan-26 19:07N 24°49' W 110°34'0 0.2
2018-Jan-26 18:59N 24°49' W 110°34'28 1.2
2018-Jan-25 19:55N 24°24' W 110°20'0 0.4
2018-Jan-25 19:30N 24°24' W 110°20'0 0.0
2018-Jan-25 19:00N 24°24' W 110°20'0 0.0
2018-Jan-25 18:28N 24°24' W 110°20'0 0.0
2018-Jan-25 17:59N 24°24' W 110°20'0 0.0
2018-Jan-25 17:30N 24°24' W 110°20'0 0.0
2018-Jan-25 16:58N 24°24' W 110°20'0 0.0
2018-Jan-25 16:29N 24°24' W 110°20'0 0.0
2018-Jan-25 15:59N 24°24' W 110°20'0 0.0
2018-Jan-25 15:28N 24°24' W 110°20'0 0.0
2018-Jan-25 15:00N 24°24' W 110°20'0 0.0
2018-Jan-25 14:13N 24°24' W 110°20'  

Dump ship's entire track history